createdAt,value
2022-10-20T00:01:28.847Z,102149.94
2022-10-20T00:03:57.032Z,102146.88
2022-10-20T00:06:33.832Z,102145.44
2022-10-20T00:09:05.151Z,102139.69
2022-10-20T00:11:33.964Z,102138.88
2022-10-20T00:14:02.945Z,102135.03
2022-10-20T00:16:37.339Z,102138.06
2022-10-20T00:19:05.439Z,102127.53
2022-10-20T00:21:35.613Z,102131.03
2022-10-20T00:24:04.378Z,102126.53
2022-10-20T00:26:34.107Z,102139.19
2022-10-20T00:29:04.783Z,102135.59
2022-10-20T00:31:32.768Z,102132.03
2022-10-20T00:33:59.752Z,102132.53
2022-10-20T00:36:26.756Z,102125.13
2022-10-20T00:39:03.719Z,102132.19
2022-10-20T00:41:33.595Z,102120.03
2022-10-20T00:44:42.138Z,102119.78
2022-10-20T00:47:32.689Z,102113.69
2022-10-20T00:50:16.697Z,102105.69
2022-10-20T00:52:47.197Z,102105.94
2022-10-20T00:55:25.384Z,102097.97
2022-10-20T00:57:58.017Z,102101.78
2022-10-20T01:00:27.612Z,102094.28
2022-10-20T01:03:01.734Z,102090.94
2022-10-20T01:05:28.758Z,102082.63
2022-10-20T01:07:55.502Z,102080.13
2022-10-20T01:10:36.659Z,102085.59
2022-10-20T01:13:35.586Z,102085.69
2022-10-20T01:16:54.251Z,102084.03
2022-10-20T01:19:58.395Z,102086.66
2022-10-20T01:22:55.109Z,102085.03
2022-10-20T01:26:29.758Z,102081.19
2022-10-20T01:29:21.975Z,102075.59
2022-10-20T01:32:13.573Z,102064.88
2022-10-20T01:35:01.956Z,102063.97
2022-10-20T01:37:56.556Z,102062.50
2022-10-20T01:40:31.411Z,102057.75
2022-10-20T01:43:10.346Z,102064.59
2022-10-20T01:45:45.819Z,102051.69
2022-10-20T01:48:20.113Z,102065.69
2022-10-20T01:50:50.106Z,102049.75
2022-10-20T01:53:17.798Z,102045.59
2022-10-20T01:55:44.885Z,102046.47
2022-10-20T01:59:08.416Z,102037.06
2022-10-20T02:02:15.882Z,102032.63
2022-10-20T02:05:25.918Z,102026.91
2022-10-20T02:08:31.438Z,102015.22
2022-10-20T02:11:05.539Z,102004.25
2022-10-20T02:13:39.194Z,101998.16
2022-10-20T02:16:27.581Z,102006.53
2022-10-20T02:21:50.108Z,102005.25
2022-10-20T02:24:26.158Z,102002.50
2022-10-20T02:27:04.106Z,101998.91
2022-10-20T02:29:44.904Z,101992.59
2022-10-20T02:32:16.365Z,101998.81
2022-10-20T02:34:44.424Z,101994.41
2022-10-20T02:37:11.440Z,101999.56
2022-10-20T02:39:38.368Z,101994.06
2022-10-20T02:42:09.046Z,101991.06
2022-10-20T02:44:36.459Z,101985.56
2022-10-20T02:47:03.555Z,101985.56
2022-10-20T02:49:30.651Z,101978.44
2022-10-20T02:51:57.644Z,101990.97
2022-10-20T02:54:24.650Z,101985.63
2022-10-20T02:56:51.570Z,101987.28
2022-10-20T02:59:18.431Z,101985.88
2022-10-20T03:01:45.358Z,101980.63
2022-10-20T03:04:13.786Z,101985.28
2022-10-20T03:06:41.919Z,101988.84
2022-10-20T03:09:09.020Z,101977.88
2022-10-20T03:11:36.124Z,101983.38
2022-10-20T03:14:03.590Z,101978.16
2022-10-20T03:16:30.452Z,101981.13
2022-10-20T03:19:00.276Z,101966.81
2022-10-20T03:21:31.170Z,101961.84
2022-10-20T03:23:57.973Z,101963.66
2022-10-20T03:26:24.930Z,101960.53
2022-10-20T03:28:51.755Z,101952.81
2022-10-20T03:31:19.013Z,101954.22
2022-10-20T03:33:45.811Z,101957.81
2022-10-20T03:36:12.844Z,101948.75
2022-10-20T03:38:43.351Z,101949.22
2022-10-20T03:41:11.777Z,101947.81
2022-10-20T03:43:42.629Z,101952.81
2022-10-20T03:46:12.072Z,101953.28
2022-10-20T03:48:41.208Z,101957.13
2022-10-20T03:51:09.713Z,101961.19
2022-10-20T03:53:36.514Z,101958.34
2022-10-20T03:56:17.632Z,101951.28
2022-10-20T03:58:45.451Z,101952.25
2022-10-20T04:01:19.149Z,101952.50
2022-10-20T04:03:46.074Z,101945.34
2022-10-20T04:06:15.485Z,101945.13
2022-10-20T04:08:42.785Z,101933.88
2022-10-20T04:11:10.118Z,101940.69
2022-10-20T04:13:37.052Z,101936.78
2022-10-20T04:16:04.045Z,101935.94
2022-10-20T04:18:32.124Z,101930.47
2022-10-20T04:20:59.383Z,101926.63
2022-10-20T04:23:26.316Z,101915.09
2022-10-20T04:25:53.123Z,101922.00
2022-10-20T04:28:21.131Z,101922.25
2022-10-20T04:30:49.276Z,101922.25
2022-10-20T04:33:16.995Z,101919.72
2022-10-20T04:35:44.335Z,101918.91
2022-10-20T04:38:11.289Z,101915.81
2022-10-20T04:40:38.089Z,101914.75
2022-10-20T04:43:05.006Z,101910.84
2022-10-20T04:45:31.813Z,101902.84
2022-10-20T04:47:58.887Z,101903.56
2022-10-20T04:50:25.840Z,101905.44
2022-10-20T04:52:52.561Z,101909.63
2022-10-20T04:55:20.389Z,101901.41
2022-10-20T04:57:47.226Z,101889.34
2022-10-20T05:00:15.176Z,101894.25
2022-10-20T05:02:42.148Z,101886.84
2022-10-20T05:05:09.854Z,101890.66
2022-10-20T05:07:36.998Z,101885.66
2022-10-20T05:10:05.379Z,101885.94
2022-10-20T05:12:32.185Z,101882.00
2022-10-20T05:14:58.931Z,101883.66
2022-10-20T05:17:26.078Z,101881.41
2022-10-20T05:19:52.826Z,101874.75
2022-10-20T05:22:19.726Z,101878.56
2022-10-20T05:24:46.523Z,101878.56
2022-10-20T05:27:13.562Z,101881.28
2022-10-20T05:29:40.323Z,101880.69
2022-10-20T05:32:07.135Z,101885.94
2022-10-20T05:34:33.879Z,101879.41
2022-10-20T05:37:00.733Z,101873.78
2022-10-20T05:39:27.647Z,101868.38
2022-10-20T05:41:54.407Z,101863.41
2022-10-20T05:44:21.457Z,101869.28
2022-10-20T05:46:48.160Z,101872.22
2022-10-20T05:49:17.731Z,101872.69
2022-10-20T05:51:47.233Z,101883.66
2022-10-20T05:54:15.642Z,101887.72
2022-10-20T05:56:42.430Z,101890.22
2022-10-20T05:59:11.327Z,101887.22
2022-10-20T06:01:50.467Z,101884.25
2022-10-20T06:04:23.903Z,101889.09
2022-10-20T06:06:53.012Z,101899.81
2022-10-20T06:09:24.424Z,101890.38
2022-10-20T06:11:53.123Z,101892.75
2022-10-20T06:14:25.819Z,101887.78
2022-10-20T06:16:55.260Z,101891.59
2022-10-20T06:19:24.940Z,101899.09
2022-10-20T06:21:53.336Z,101896.69
2022-10-20T06:24:21.092Z,101890.47
2022-10-20T06:26:48.065Z,101888.56
2022-10-20T06:29:20.468Z,101885.56
2022-10-20T06:31:51.603Z,101887.59
2022-10-20T06:34:25.898Z,101884.00
2022-10-20T06:36:53.107Z,101881.00
2022-10-20T06:39:25.097Z,101884.00
2022-10-20T06:41:55.260Z,101883.88
2022-10-20T06:44:24.659Z,101883.34
2022-10-20T06:46:54.899Z,101878.88
2022-10-20T06:49:23.551Z,101875.16
2022-10-20T06:51:50.796Z,101869.44
2022-10-20T06:54:18.773Z,101876.34
2022-10-20T06:56:46.931Z,101884.75
2022-10-20T06:59:13.860Z,101872.25
2022-10-20T07:01:40.991Z,101877.50
2022-10-20T07:04:15.888Z,101876.31
2022-10-20T07:06:47.045Z,101881.69
2022-10-20T07:09:20.982Z,101886.75
2022-10-20T07:11:53.184Z,101880.91
2022-10-20T07:14:21.048Z,101878.03
2022-10-20T07:16:48.198Z,101880.44
2022-10-20T07:19:15.240Z,101880.81
2022-10-20T07:21:45.594Z,101883.16
2022-10-20T07:24:13.111Z,101885.28
2022-10-20T07:26:42.458Z,101891.72
2022-10-20T07:29:12.789Z,101883.56
2022-10-20T07:31:45.469Z,101881.03
2022-10-20T07:34:31.222Z,101874.78
2022-10-20T07:36:58.984Z,101877.38
2022-10-20T07:39:27.681Z,101865.41
2022-10-20T07:41:54.647Z,101873.44
2022-10-20T07:44:21.685Z,101870.78
2022-10-20T07:46:48.696Z,101867.56
2022-10-20T07:52:02.470Z,101863.94
2022-10-20T07:54:29.281Z,101862.31
2022-10-20T07:56:56.016Z,101869.84
2022-10-20T07:59:22.948Z,101861.03
2022-10-20T08:01:49.884Z,101869.91
2022-10-20T08:04:16.672Z,101869.66
2022-10-20T08:06:45.307Z,101850.94
2022-10-20T08:09:12.057Z,101849.56
2022-10-20T08:11:39.359Z,101849.56
2022-10-20T08:14:06.272Z,101840.19
2022-10-20T08:16:33.574Z,101837.19
2022-10-20T08:19:02.410Z,101828.63
2022-10-20T08:21:29.155Z,101834.38
2022-10-20T08:23:56.198Z,101825.81
2022-10-20T08:26:27.550Z,101831.28
2022-10-20T08:28:55.899Z,101831.00
2022-10-20T08:31:23.654Z,101830.38
2022-10-20T08:33:53.092Z,101827.03
2022-10-20T08:36:21.649Z,101832.81
2022-10-20T08:38:49.154Z,101829.69
2022-10-20T08:41:43.460Z,101833.78
2022-10-20T08:44:31.657Z,101832.81
2022-10-20T08:47:05.650Z,101830.28
2022-10-20T08:49:35.825Z,101829.06
2022-10-20T08:52:03.833Z,101817.13
2022-10-20T08:54:34.835Z,101817.25
2022-10-20T08:57:02.019Z,101813.88
2022-10-20T08:59:39.816Z,101815.50
2022-10-20T09:02:17.527Z,101805.56
2022-10-20T09:05:00.609Z,101810.19
2022-10-20T09:07:40.186Z,101812.94
2022-10-20T09:10:21.005Z,101819.25
2022-10-20T09:12:51.273Z,101808.47
2022-10-20T09:15:21.520Z,101808.94
2022-10-20T09:18:04.256Z,101811.44
2022-10-20T09:20:45.815Z,101803.13
2022-10-20T09:23:40.753Z,101789.41
2022-10-20T09:26:30.813Z,101779.53
2022-10-20T09:29:16.791Z,101772.09
2022-10-20T09:31:53.379Z,101767.38
2022-10-20T09:34:35.382Z,101763.38
2022-10-20T09:37:19.499Z,101761.56
2022-10-20T09:39:58.891Z,101754.50
2022-10-20T09:42:36.889Z,101752.66
2022-10-20T09:45:23.008Z,101755.34
2022-10-20T09:48:02.728Z,101746.13
2022-10-20T09:50:40.735Z,101744.91
2022-10-20T09:53:24.969Z,101743.81
2022-10-20T09:55:52.627Z,101742.56
2022-10-20T09:58:31.260Z,101731.22
2022-10-20T10:01:12.223Z,101723.84
2022-10-20T10:03:45.210Z,101720.81
2022-10-20T10:06:39.117Z,101719.78
2022-10-20T10:09:38.112Z,101717.00
2022-10-20T10:12:15.068Z,101708.78
2022-10-20T10:15:04.435Z,101699.38
2022-10-20T10:17:40.332Z,101700.00
2022-10-20T10:20:10.148Z,101693.81
2022-10-20T10:22:38.559Z,101695.31
2022-10-20T10:25:18.064Z,101692.16
2022-10-20T10:28:22.702Z,101683.25
2022-10-20T10:30:54.951Z,101684.19
2022-10-20T10:33:29.276Z,101666.47
2022-10-20T10:35:57.912Z,101660.13
2022-10-20T10:38:24.758Z,101651.41
2022-10-20T10:41:39.363Z,101658.44
2022-10-20T10:44:27.568Z,101660.22
2022-10-20T10:47:45.117Z,101646.59
2022-10-20T10:50:56.211Z,101641.47
2022-10-20T10:54:39.257Z,101644.50
2022-10-20T10:57:53.939Z,101630.41
2022-10-20T11:00:53.602Z,101633.88
2022-10-20T11:03:37.585Z,101624.66
2022-10-20T11:06:42.658Z,101623.78
2022-10-20T11:09:34.837Z,101620.69
2022-10-20T11:12:45.073Z,101618.06
2022-10-20T11:15:50.592Z,101603.97
2022-10-20T11:19:12.967Z,101589.91
2022-10-20T11:22:51.582Z,101591.03
2022-10-20T11:25:44.967Z,101575.22
2022-10-20T11:28:44.550Z,101569.84
2022-10-20T11:31:57.701Z,101570.22
2022-10-20T11:34:52.613Z,101567.63
2022-10-20T11:37:41.842Z,101563.50
2022-10-20T11:40:11.676Z,101571.22
2022-10-20T11:43:12.884Z,101562.38
2022-10-20T11:46:00.258Z,101563.38
2022-10-20T11:48:44.793Z,101566.00
2022-10-20T11:52:04.766Z,101558.06
2022-10-20T11:54:59.686Z,101548.78
2022-10-20T11:57:52.263Z,101551.63
2022-10-20T12:01:06.173Z,101554.88
2022-10-20T12:04:06.114Z,101540.78
2022-10-20T12:07:24.938Z,101535.38
2022-10-20T12:10:29.324Z,101539.63
2022-10-20T12:13:39.057Z,101529.69
2022-10-20T12:16:06.153Z,101535.91
2022-10-20T12:18:37.055Z,101529.41
2022-10-20T12:21:10.591Z,101529.28
2022-10-20T12:23:43.532Z,101526.97
2022-10-20T12:27:09.797Z,101516.31
2022-10-20T12:29:36.511Z,101517.84
2022-10-20T12:32:24.040Z,101493.94
2022-10-20T12:35:24.015Z,101501.81
2022-10-20T12:38:04.615Z,101509.03
2022-10-20T12:40:49.267Z,101503.63
2022-10-20T12:44:06.636Z,101501.84
2022-10-20T12:46:53.475Z,101492.31
2022-10-20T12:49:39.355Z,101492.81
2022-10-20T12:52:22.069Z,101497.38
2022-10-20T12:55:38.242Z,101492.31
2022-10-20T12:58:17.064Z,101479.53
2022-10-20T13:00:46.569Z,101475.75
2022-10-20T13:03:31.849Z,101471.03
2022-10-20T13:06:27.825Z,101465.47
2022-10-20T13:09:03.869Z,101460.84
2022-10-20T13:11:40.828Z,101451.34
2022-10-20T13:14:19.150Z,101457.59
2022-10-20T13:17:24.108Z,101459.69
2022-10-20T13:20:18.636Z,101447.03
2022-10-20T13:22:55.209Z,101445.44
2022-10-20T13:25:48.869Z,101446.06
2022-10-20T13:28:28.625Z,101442.78
2022-10-20T13:31:15.341Z,101442.44
2022-10-20T13:34:39.223Z,101436.06
2022-10-20T13:37:25.777Z,101431.47
2022-10-20T13:40:26.704Z,101427.53
2022-10-20T13:43:20.615Z,101424.25
2022-10-20T13:45:50.291Z,101421.13
2022-10-20T13:49:09.474Z,101411.13
2022-10-20T13:51:51.117Z,101406.72
2022-10-20T13:54:38.823Z,101402.75
2022-10-20T13:57:21.607Z,101396.19
2022-10-20T14:00:17.334Z,101400.78
2022-10-20T14:03:04.959Z,101406.03
2022-10-20T14:05:39.504Z,101405.72
2022-10-20T14:08:15.110Z,101400.47
2022-10-20T14:11:05.278Z,101397.03
2022-10-20T14:13:36.914Z,101404.06
2022-10-20T14:16:21.410Z,101409.78
2022-10-20T14:19:11.403Z,101415.69
2022-10-20T14:21:47.083Z,101409.28
2022-10-20T14:24:35.170Z,101402.75
2022-10-20T14:27:21.338Z,101403.69
2022-10-20T14:29:54.236Z,101410.75
2022-10-20T14:32:30.819Z,101407.28
2022-10-20T14:35:18.968Z,101400.25
2022-10-20T14:38:06.363Z,101412.03
2022-10-20T14:43:23.441Z,101406.28
2022-10-20T14:46:03.851Z,101392.53
2022-10-20T14:48:50.220Z,101388.09
2022-10-20T14:51:45.407Z,101378.56
2022-10-20T14:54:37.346Z,101372.00
2022-10-20T14:57:10.448Z,101368.72
2022-10-20T15:00:22.326Z,101353.78
2022-10-20T15:02:57.033Z,101354.25
2022-10-20T15:05:26.683Z,101348.59
2022-10-20T15:07:57.240Z,101348.72
2022-10-20T15:10:30.357Z,101351.00
2022-10-20T15:13:00.625Z,101353.25
2022-10-20T15:15:39.255Z,101352.88
2022-10-20T15:18:18.621Z,101348.06
2022-10-20T15:20:50.238Z,101345.59
2022-10-20T15:23:29.484Z,101352.44
2022-10-20T15:26:06.714Z,101347.56
2022-10-20T15:28:50.617Z,101347.53
2022-10-20T15:31:30.089Z,101352.63
2022-10-20T15:33:59.767Z,101345.44
2022-10-20T15:36:41.854Z,101339.59
2022-10-20T15:39:13.015Z,101342.19
2022-10-20T15:41:43.806Z,101329.47
2022-10-20T15:44:22.342Z,101314.50
2022-10-20T15:46:53.696Z,101323.91
2022-10-20T15:49:24.012Z,101319.97
2022-10-20T15:51:53.883Z,101317.53
2022-10-20T15:54:23.669Z,101311.16
2022-10-20T15:56:53.496Z,101305.53
2022-10-20T15:59:23.296Z,101299.16
2022-10-20T16:01:53.253Z,101293.50
2022-10-20T16:04:26.684Z,101288.16
2022-10-20T16:06:57.905Z,101282.31
2022-10-20T16:09:31.021Z,101292.38
2022-10-20T16:12:00.377Z,101279.03
2022-10-20T16:14:30.098Z,101283.75
2022-10-20T16:16:59.750Z,101275.22
2022-10-20T16:19:29.665Z,101276.34
2022-10-20T16:21:59.624Z,101284.56
2022-10-20T16:24:29.406Z,101297.16
2022-10-20T16:26:59.323Z,101296.50
2022-10-20T16:29:29.257Z,101309.84
2022-10-20T16:31:59.952Z,101306.63
2022-10-20T16:34:30.369Z,101298.31
2022-10-20T16:37:00.097Z,101301.28
2022-10-20T16:39:30.058Z,101304.06
2022-10-20T16:41:59.818Z,101295.34
2022-10-20T16:44:30.783Z,101297.28
2022-10-20T16:47:00.699Z,101298.13
2022-10-20T16:49:30.600Z,101293.69
2022-10-20T16:52:01.713Z,101292.97
2022-10-20T16:54:31.754Z,101293.44
2022-10-20T16:57:01.949Z,101294.06
2022-10-20T16:59:31.710Z,101284.66
2022-10-20T17:02:01.495Z,101280.25
2022-10-20T17:04:31.909Z,101281.16
2022-10-20T17:07:01.418Z,101272.72
2022-10-20T17:09:31.114Z,101260.59
2022-10-20T17:12:00.897Z,101255.34
2022-10-20T17:14:30.695Z,101243.59
2022-10-20T17:17:00.508Z,101250.06
2022-10-20T17:19:30.556Z,101248.97
2022-10-20T17:22:00.607Z,101247.22
2022-10-20T17:24:30.526Z,101238.41
2022-10-20T17:27:00.440Z,101237.53
2022-10-20T17:29:30.015Z,101235.28
2022-10-20T17:31:59.816Z,101222.88
2022-10-20T17:34:29.515Z,101218.53
2022-10-20T17:36:59.408Z,101224.88
2022-10-20T17:39:29.209Z,101231.34
2022-10-20T17:41:59.064Z,101228.66
2022-10-20T17:44:28.852Z,101225.38
2022-10-20T17:46:59.262Z,101218.28
2022-10-20T17:49:29.057Z,101215.72
2022-10-20T17:51:58.879Z,101216.00
2022-10-20T17:54:28.650Z,101217.78
2022-10-20T17:56:58.506Z,101223.50
2022-10-20T17:59:32.144Z,101220.72
2022-10-20T18:02:10.785Z,101219.00
2022-10-20T18:04:40.769Z,101233.59
2022-10-20T18:07:10.577Z,101225.97
2022-10-20T18:09:37.558Z,101219.00
2022-10-20T18:12:11.315Z,101224.34
2022-10-20T18:14:40.599Z,101219.75
2022-10-20T18:17:09.807Z,101218.72
2022-10-20T18:19:37.266Z,101209.31
2022-10-20T18:22:06.927Z,101203.78
2022-10-20T18:24:37.393Z,101184.25
2022-10-20T18:27:07.141Z,101169.44
2022-10-20T18:29:37.556Z,101168.25
2022-10-20T18:32:07.462Z,101160.16
2022-10-20T18:34:38.662Z,101154.16
2022-10-20T18:37:08.410Z,101149.16
2022-10-20T18:39:38.330Z,101155.50
2022-10-20T18:42:12.331Z,101150.38
2022-10-20T18:44:42.389Z,101155.38
2022-10-20T18:47:12.250Z,101150.84
2022-10-20T18:49:44.955Z,101168.34
2022-10-20T18:52:11.913Z,101145.09
2022-10-20T18:54:41.693Z,101135.97
2022-10-20T18:57:11.336Z,101146.28
2022-10-20T18:59:44.137Z,101143.91
2022-10-20T19:02:11.753Z,101137.59
2022-10-20T19:04:41.715Z,101136.34
2022-10-20T19:07:11.545Z,101143.66
2022-10-20T19:09:41.332Z,101139.41
2022-10-20T19:12:14.799Z,101136.56
2022-10-20T19:14:44.633Z,101135.03
2022-10-20T19:17:14.466Z,101131.66
2022-10-20T19:19:44.781Z,101130.97
2022-10-20T19:22:14.566Z,101135.22
2022-10-20T19:24:44.499Z,101134.47
2022-10-20T19:27:26.062Z,101133.19
2022-10-20T19:29:56.326Z,101131.53
2022-10-20T19:32:26.259Z,101132.06
2022-10-20T19:34:56.040Z,101127.38
2022-10-20T19:37:25.796Z,101124.66
2022-10-20T19:39:55.757Z,101121.63
2022-10-20T19:42:25.762Z,101119.22
2022-10-20T19:44:55.770Z,101115.69
2022-10-20T19:47:25.566Z,101119.63
2022-10-20T19:49:55.432Z,101119.72
2022-10-20T19:52:25.076Z,101111.88
2022-10-20T19:54:54.950Z,101112.53
2022-10-20T19:57:24.694Z,101117.88
2022-10-20T19:59:54.398Z,101114.97
2022-10-20T20:02:24.142Z,101118.09
2022-10-20T20:04:53.962Z,101108.50
2022-10-20T20:07:23.849Z,101110.78
2022-10-20T20:09:53.718Z,101102.25
2022-10-20T20:12:23.817Z,101098.41
2022-10-20T20:14:53.358Z,101101.44
2022-10-20T20:17:20.253Z,101098.16
2022-10-20T20:19:47.420Z,101091.34
2022-10-20T20:22:17.468Z,101087.47
2022-10-20T20:24:47.263Z,101085.59
2022-10-20T20:27:16.969Z,101085.34
2022-10-20T20:29:46.738Z,101089.00
2022-10-20T20:32:17.736Z,101089.03
2022-10-20T20:34:46.819Z,101076.63
2022-10-20T20:37:16.661Z,101074.94
2022-10-20T20:39:46.437Z,101077.34
2022-10-20T20:42:19.641Z,101077.59
2022-10-20T20:44:51.647Z,101081.78
2022-10-20T20:47:19.128Z,101084.75
2022-10-20T20:49:46.010Z,101082.34
2022-10-20T20:52:15.752Z,101080.72
2022-10-20T20:54:45.599Z,101076.81
2022-10-20T20:57:15.292Z,101082.06
2022-10-20T20:59:45.019Z,101080.97
2022-10-20T21:02:16.149Z,101078.19
2022-10-20T21:04:45.859Z,101072.97
2022-10-20T21:07:15.554Z,101073.00
2022-10-20T21:09:45.273Z,101073.25
2022-10-20T21:12:15.199Z,101067.97
2022-10-20T21:14:48.792Z,101069.91
2022-10-20T21:17:16.733Z,101063.03
2022-10-20T21:19:46.587Z,101072.44
2022-10-20T21:22:16.211Z,101053.38
2022-10-20T21:24:45.940Z,101050.19
2022-10-20T21:27:15.611Z,101054.28
2022-10-20T21:29:46.400Z,101065.69
2022-10-20T21:32:18.466Z,101051.34
2022-10-20T21:34:47.883Z,101053.00
2022-10-20T21:37:17.709Z,101054.06
2022-10-20T21:39:47.227Z,101062.09
2022-10-20T21:42:17.159Z,101059.34
2022-10-20T21:44:46.968Z,101059.06
2022-10-20T21:47:16.711Z,101074.78
2022-10-20T21:49:46.586Z,101068.09
2022-10-20T21:52:16.461Z,101074.66
2022-10-20T21:54:46.143Z,101076.84
2022-10-20T21:57:15.961Z,101069.03
2022-10-20T21:59:50.480Z,101064.31
2022-10-20T22:02:19.646Z,101068.75
2022-10-20T22:04:49.389Z,101067.94
2022-10-20T22:07:19.168Z,101061.19
2022-10-20T22:09:48.977Z,101060.38
2022-10-20T22:12:18.956Z,101056.53
2022-10-20T22:14:48.729Z,101057.88
2022-10-20T22:17:18.539Z,101050.34
2022-10-20T22:19:50.347Z,101042.63
2022-10-20T22:22:19.572Z,101039.44
2022-10-20T22:24:49.373Z,101048.81
2022-10-20T22:27:31.330Z,101043.66
2022-10-20T22:30:10.364Z,101054.97
2022-10-20T22:32:40.366Z,101052.53
2022-10-20T22:35:10.382Z,101055.06
2022-10-20T22:37:39.999Z,101041.84
2022-10-20T22:40:10.343Z,101041.91
2022-10-20T22:42:40.329Z,101036.97
2022-10-20T22:45:11.506Z,101050.47
2022-10-20T22:47:41.180Z,101050.19
2022-10-20T22:50:10.815Z,101046.00
2022-10-20T22:52:40.939Z,101047.13
2022-10-20T22:55:10.812Z,101043.56
2022-10-20T22:57:40.577Z,101038.84
2022-10-20T23:00:13.976Z,101027.53
2022-10-20T23:02:41.780Z,101028.63
2022-10-20T23:05:12.413Z,101027.28
2022-10-20T23:07:42.125Z,101034.75
2022-10-20T23:10:12.064Z,101030.03
2022-10-20T23:12:42.017Z,101015.13
2022-10-20T23:15:11.772Z,101013.19
2022-10-20T23:17:41.541Z,101010.72
2022-10-20T23:20:11.955Z,100996.91
2022-10-20T23:22:41.841Z,100993.09
2022-10-20T23:25:11.653Z,100993.69
2022-10-20T23:27:41.352Z,100994.53
2022-10-20T23:30:11.471Z,100984.81
2022-10-20T23:32:41.101Z,100993.41
2022-10-20T23:35:10.751Z,100980.41
2022-10-20T23:37:40.764Z,100984.00
2022-10-20T23:40:11.792Z,100977.44
2022-10-20T23:42:41.380Z,100976.63
2022-10-20T23:45:11.665Z,100968.56
2022-10-20T23:47:41.009Z,100961.94
2022-10-20T23:50:11.180Z,100958.13
2022-10-20T23:52:40.639Z,100961.69
2022-10-20T23:55:13.196Z,100974.06
2022-10-20T23:57:45.271Z,100973.19
